createdAt,value
2019-01-30T00:01:29.636Z,99032.23
2019-01-30T00:03:57.412Z,99023.30
2019-01-30T00:06:25.224Z,99016.00
2019-01-30T00:08:53.000Z,99013.48
2019-01-30T00:11:20.818Z,99005.98
2019-01-30T00:13:48.626Z,99011.22
2019-01-30T00:16:16.675Z,99013.39
2019-01-30T00:18:44.441Z,99007.25
2019-01-30T00:21:12.465Z,99006.11
2019-01-30T00:23:40.239Z,99005.73
2019-01-30T00:26:08.084Z,99005.69
2019-01-30T00:28:36.037Z,98996.00
2019-01-30T00:31:03.952Z,99000.96
2019-01-30T00:33:31.827Z,98998.80
2019-01-30T00:35:59.661Z,98991.08
2019-01-30T00:38:27.438Z,98987.03
2019-01-30T00:40:55.244Z,98985.41
2019-01-30T00:43:23.180Z,98978.91
2019-01-30T00:45:51.115Z,98974.37
2019-01-30T00:48:19.147Z,98965.19
2019-01-30T00:50:46.978Z,98972.73
2019-01-30T00:53:14.912Z,98963.02
2019-01-30T00:55:42.760Z,98963.95
2019-01-30T00:58:10.535Z,98957.55
2019-01-30T01:00:38.482Z,98954.91
2019-01-30T01:03:06.514Z,98950.67
2019-01-30T01:05:34.300Z,98952.45
2019-01-30T01:08:02.120Z,98953.90
2019-01-30T01:10:29.910Z,98955.38
2019-01-30T01:12:57.953Z,98958.67
2019-01-30T01:15:25.838Z,98951.89
2019-01-30T01:17:53.853Z,98960.61
2019-01-30T01:20:21.816Z,98950.48
2019-01-30T01:22:50.126Z,98953.72
2019-01-30T01:25:18.500Z,98952.39
2019-01-30T01:27:46.772Z,98944.70
2019-01-30T01:30:24.852Z,98946.34
2019-01-30T01:32:48.214Z,98937.75
2019-01-30T01:35:16.085Z,98937.38
2019-01-30T01:37:44.062Z,98933.12
2019-01-30T01:40:13.245Z,98934.37
2019-01-30T01:42:41.243Z,98931.51
2019-01-30T01:45:12.769Z,98931.67
2019-01-30T01:47:40.799Z,98930.77
2019-01-30T01:50:11.109Z,98931.80
2019-01-30T01:52:39.233Z,98924.81
2019-01-30T01:55:07.763Z,98921.20
2019-01-30T01:57:35.703Z,98913.88
2019-01-30T02:00:05.523Z,98911.95
2019-01-30T02:02:33.337Z,98921.90
2019-01-30T02:05:01.241Z,98917.46
2019-01-30T02:07:29.055Z,98912.56
2019-01-30T02:09:56.975Z,98912.56
2019-01-30T02:12:24.921Z,98903.73
2019-01-30T02:14:52.681Z,98912.36
2019-01-30T02:17:20.473Z,98906.12
2019-01-30T02:19:48.459Z,98903.25
2019-01-30T02:22:16.411Z,98892.45
2019-01-30T02:24:44.191Z,98892.33
2019-01-30T02:27:11.993Z,98896.47
2019-01-30T02:29:39.963Z,98893.06
2019-01-30T02:32:07.780Z,98887.42
2019-01-30T02:34:35.549Z,98884.42
2019-01-30T02:37:03.339Z,98875.56
2019-01-30T02:39:31.117Z,98876.55
2019-01-30T02:41:58.883Z,98874.78
2019-01-30T02:44:26.837Z,98874.70
2019-01-30T02:46:54.645Z,98867.62
2019-01-30T02:49:22.546Z,98859.07
2019-01-30T02:51:50.362Z,98860.23
2019-01-30T02:54:18.125Z,98860.91
2019-01-30T02:56:45.884Z,98858.06
2019-01-30T02:59:13.863Z,98858.58
2019-01-30T03:02:01.206Z,98856.92
2019-01-30T03:04:28.996Z,98865.41
2019-01-30T03:06:56.759Z,98858.55
2019-01-30T03:09:24.722Z,98853.98
2019-01-30T03:11:52.507Z,98857.28
2019-01-30T03:14:20.617Z,98852.96
2019-01-30T03:16:48.447Z,98851.21
2019-01-30T03:19:16.387Z,98845.31
2019-01-30T03:21:44.136Z,98842.13
2019-01-30T03:24:12.113Z,98841.06
2019-01-30T03:26:39.909Z,98833.58
2019-01-30T03:29:07.730Z,98836.80
2019-01-30T03:31:35.482Z,98839.77
2019-01-30T03:34:04.220Z,98840.42
2019-01-30T03:36:31.982Z,98830.70
2019-01-30T03:38:59.769Z,98828.61
2019-01-30T03:41:27.529Z,98825.92
2019-01-30T03:43:55.314Z,98829.75
2019-01-30T03:46:23.254Z,98825.91
2019-01-30T03:48:51.199Z,98820.50
2019-01-30T03:51:18.985Z,98830.48
2019-01-30T03:53:46.760Z,98822.39
2019-01-30T03:56:14.509Z,98815.98
2019-01-30T03:58:42.294Z,98820.84
2019-01-30T04:01:10.187Z,98814.89
2019-01-30T04:03:37.938Z,98812.92
2019-01-30T04:06:05.699Z,98808.84
2019-01-30T04:08:33.451Z,98817.07
2019-01-30T04:11:01.201Z,98803.60
2019-01-30T04:13:28.939Z,98803.84
2019-01-30T04:15:56.719Z,98798.99
2019-01-30T04:18:24.499Z,98789.55
2019-01-30T04:20:52.417Z,98789.80
2019-01-30T04:23:20.184Z,98788.16
2019-01-30T04:25:47.968Z,98787.63
2019-01-30T04:28:15.746Z,98782.22
2019-01-30T04:30:43.726Z,98778.88
2019-01-30T04:33:11.546Z,98773.44
2019-01-30T04:35:39.381Z,98766.89
2019-01-30T04:38:07.289Z,98762.12
2019-01-30T04:40:35.168Z,98759.72
2019-01-30T04:43:02.949Z,98756.80
2019-01-30T04:45:30.941Z,98759.69
2019-01-30T04:47:58.801Z,98757.23
2019-01-30T04:50:26.740Z,98754.89
2019-01-30T04:52:54.532Z,98747.98
2019-01-30T04:55:22.345Z,98752.72
2019-01-30T04:57:50.201Z,98748.11
2019-01-30T05:00:21.250Z,98743.75
2019-01-30T05:02:49.013Z,98743.07
2019-01-30T05:05:16.928Z,98747.34
2019-01-30T05:07:44.665Z,98746.94
2019-01-30T05:10:12.876Z,98740.16
2019-01-30T05:12:40.672Z,98731.19
2019-01-30T05:15:17.149Z,98734.38
2019-01-30T05:17:45.030Z,98734.41
2019-01-30T05:20:14.866Z,98736.95
2019-01-30T05:22:42.836Z,98729.96
2019-01-30T05:25:10.973Z,98739.61
2019-01-30T05:27:38.864Z,98738.03
2019-01-30T05:30:16.618Z,98740.19
2019-01-30T05:32:47.511Z,98741.23
2019-01-30T05:35:15.430Z,98740.00
2019-01-30T05:37:43.414Z,98745.06
2019-01-30T05:40:12.812Z,98748.02
2019-01-30T05:42:40.764Z,98743.59
2019-01-30T05:45:11.413Z,98745.07
2019-01-30T05:47:39.425Z,98746.79
2019-01-30T05:50:07.520Z,98736.39
2019-01-30T05:52:35.339Z,98731.77
2019-01-30T05:55:04.533Z,98728.67
2019-01-30T05:57:32.474Z,98725.75
2019-01-30T06:00:00.371Z,98711.75
2019-01-30T06:02:31.263Z,98714.14
2019-01-30T06:04:59.059Z,98712.14
2019-01-30T06:07:26.956Z,98707.63
2019-01-30T06:09:54.828Z,98702.84
2019-01-30T06:12:22.840Z,98699.67
2019-01-30T06:14:50.670Z,98697.92
2019-01-30T06:17:18.446Z,98696.12
2019-01-30T06:19:46.233Z,98706.70
2019-01-30T06:22:14.241Z,98698.51
2019-01-30T06:24:42.016Z,98699.55
2019-01-30T06:27:09.819Z,98707.45
2019-01-30T06:29:37.575Z,98702.56
2019-01-30T06:32:05.378Z,98704.73
2019-01-30T06:34:33.251Z,98706.82
2019-01-30T06:37:01.059Z,98703.78
2019-01-30T06:39:28.857Z,98711.40
2019-01-30T06:41:56.641Z,98707.25
2019-01-30T06:44:24.567Z,98712.30
2019-01-30T06:46:52.331Z,98709.94
2019-01-30T06:49:20.111Z,98708.64
2019-01-30T06:51:47.883Z,98700.75
2019-01-30T06:54:15.882Z,98700.88
2019-01-30T06:56:43.734Z,98699.06
2019-01-30T06:59:11.532Z,98692.64
2019-01-30T07:01:39.425Z,98696.23
2019-01-30T07:04:07.403Z,98696.64
2019-01-30T07:06:35.358Z,98691.14
2019-01-30T07:09:08.700Z,98692.13
2019-01-30T07:11:36.495Z,98686.38
2019-01-30T07:14:04.344Z,98685.35
2019-01-30T07:16:32.150Z,98685.47
2019-01-30T07:19:00.054Z,98680.86
2019-01-30T07:21:28.021Z,98682.53
2019-01-30T07:23:56.120Z,98681.63
2019-01-30T07:26:23.994Z,98686.39
2019-01-30T07:28:51.813Z,98683.40
2019-01-30T07:31:19.574Z,98681.70
2019-01-30T07:33:47.381Z,98684.41
2019-01-30T07:36:15.208Z,98686.49
2019-01-30T07:38:43.197Z,98683.61
2019-01-30T07:41:10.940Z,98687.62
2019-01-30T07:43:38.695Z,98677.56
2019-01-30T07:46:06.496Z,98687.89
2019-01-30T07:48:34.262Z,98683.43
2019-01-30T07:51:02.041Z,98685.30
2019-01-30T07:53:30.118Z,98684.16
2019-01-30T07:55:57.886Z,98677.94
2019-01-30T07:58:27.677Z,98671.15
2019-01-30T08:00:55.489Z,98680.09
2019-01-30T08:03:23.376Z,98681.08
2019-01-30T08:05:51.177Z,98691.52
2019-01-30T08:08:19.231Z,98683.94
2019-01-30T08:10:47.071Z,98684.58
2019-01-30T08:13:14.987Z,98688.69
2019-01-30T08:15:42.728Z,98687.50
2019-01-30T08:18:10.608Z,98689.86
2019-01-30T08:20:38.528Z,98684.95
2019-01-30T08:23:06.340Z,98684.45
2019-01-30T08:25:34.161Z,98690.27
2019-01-30T08:28:02.241Z,98681.97
2019-01-30T08:30:30.947Z,98684.28
2019-01-30T08:33:04.757Z,98677.08
2019-01-30T08:35:33.205Z,98677.42
2019-01-30T08:38:01.058Z,98672.59
2019-01-30T08:40:28.953Z,98673.59
2019-01-30T08:42:56.751Z,98679.31
2019-01-30T08:45:29.883Z,98672.73
2019-01-30T08:47:57.648Z,98671.18
2019-01-30T08:50:25.900Z,98676.98
2019-01-30T08:52:53.709Z,98678.41
2019-01-30T08:55:21.528Z,98681.27
2019-01-30T08:57:49.304Z,98676.95
2019-01-30T09:00:19.273Z,98682.52
2019-01-30T09:02:47.352Z,98672.74
2019-01-30T09:05:15.419Z,98692.45
2019-01-30T09:07:44.543Z,98686.05
2019-01-30T09:10:16.805Z,98680.25
2019-01-30T09:12:44.579Z,98680.19
2019-01-30T09:15:15.098Z,98683.20
2019-01-30T09:17:42.996Z,98678.41
2019-01-30T09:20:14.212Z,98675.01
2019-01-30T09:22:42.037Z,98676.61
2019-01-30T09:25:12.974Z,98669.97
2019-01-30T09:27:40.774Z,98669.06
2019-01-30T09:30:18.992Z,98662.59
2019-01-30T09:32:46.521Z,98665.67
2019-01-30T09:35:14.503Z,98671.81
2019-01-30T09:37:42.349Z,98669.27
2019-01-30T09:40:10.578Z,98672.10
2019-01-30T09:42:38.376Z,98667.03
2019-01-30T09:45:09.934Z,98671.69
2019-01-30T09:47:37.407Z,98669.38
2019-01-30T09:50:07.915Z,98677.06
2019-01-30T09:52:35.718Z,98665.29
2019-01-30T09:55:04.786Z,98662.41
2019-01-30T09:57:32.562Z,98657.16
2019-01-30T10:00:00.418Z,98655.28
2019-01-30T10:02:28.397Z,98655.39
2019-01-30T10:04:56.156Z,98650.36
2019-01-30T10:07:23.977Z,98652.37
2019-01-30T10:09:51.813Z,98639.53
2019-01-30T10:12:19.611Z,98642.55
2019-01-30T10:14:47.390Z,98634.25
2019-01-30T10:17:15.234Z,98634.43
2019-01-30T10:19:43.039Z,98633.98
2019-01-30T10:22:10.977Z,98629.81
2019-01-30T10:24:38.792Z,98636.23
2019-01-30T10:27:06.587Z,98626.42
2019-01-30T10:29:34.373Z,98614.40
2019-01-30T10:32:02.149Z,98610.80
2019-01-30T10:34:29.905Z,98608.81
2019-01-30T10:36:57.629Z,98617.27
2019-01-30T10:39:25.404Z,98612.24
2019-01-30T10:41:53.221Z,98602.40
2019-01-30T10:44:21.075Z,98607.69
2019-01-30T10:46:48.856Z,98605.42
2019-01-30T10:49:16.701Z,98606.20
2019-01-30T10:51:44.526Z,98593.95
2019-01-30T10:54:12.342Z,98588.42
2019-01-30T10:56:40.147Z,98591.09
2019-01-30T10:59:07.959Z,98579.36
2019-01-30T11:01:35.920Z,98575.55
2019-01-30T11:04:04.883Z,98583.93
2019-01-30T11:06:32.672Z,98575.00
2019-01-30T11:09:00.491Z,98582.00
2019-01-30T11:11:28.294Z,98575.57
2019-01-30T11:13:56.221Z,98570.02
2019-01-30T11:16:24.028Z,98573.84
2019-01-30T11:18:51.816Z,98571.52
2019-01-30T11:21:19.676Z,98572.82
2019-01-30T11:23:47.506Z,98564.20
2019-01-30T11:26:15.318Z,98547.27
2019-01-30T11:28:43.096Z,98545.84
2019-01-30T11:31:10.982Z,98542.97
2019-01-30T11:33:41.049Z,98546.79
2019-01-30T11:36:08.835Z,98539.73
2019-01-30T11:38:36.626Z,98534.27
2019-01-30T11:41:04.390Z,98543.71
2019-01-30T11:43:32.190Z,98545.06
2019-01-30T11:45:59.958Z,98535.05
2019-01-30T11:48:28.118Z,98538.08
2019-01-30T11:50:55.885Z,98531.61
2019-01-30T11:53:23.704Z,98525.58
2019-01-30T11:55:51.553Z,98517.77
2019-01-30T11:58:19.351Z,98517.51
2019-01-30T12:00:54.522Z,98522.48
2019-01-30T12:03:22.298Z,98515.22
2019-01-30T12:05:50.114Z,98514.69
2019-01-30T12:08:18.006Z,98510.13
2019-01-30T12:10:45.824Z,98507.67
2019-01-30T12:13:13.601Z,98513.73
2019-01-30T12:15:41.398Z,98506.67
2019-01-30T12:18:09.262Z,98509.38
2019-01-30T12:20:37.116Z,98518.38
2019-01-30T12:23:06.028Z,98521.14
2019-01-30T12:25:33.898Z,98510.47
2019-01-30T12:28:01.730Z,98513.47
2019-01-30T12:30:29.756Z,98524.72
2019-01-30T12:32:57.733Z,98519.27
2019-01-30T12:35:25.903Z,98528.27
2019-01-30T12:37:53.698Z,98524.47
2019-01-30T12:40:21.658Z,98522.13
2019-01-30T12:42:49.808Z,98520.77
2019-01-30T12:45:32.365Z,98511.75
2019-01-30T12:48:00.509Z,98522.61
2019-01-30T12:50:28.423Z,98522.84
2019-01-30T12:52:56.324Z,98518.08
2019-01-30T12:55:24.092Z,98515.87
2019-01-30T12:57:52.089Z,98507.47
2019-01-30T13:00:23.633Z,98502.53
2019-01-30T13:02:51.557Z,98496.94
2019-01-30T13:05:21.088Z,98505.24
2019-01-30T13:07:48.939Z,98490.44
2019-01-30T13:10:16.823Z,98500.75
2019-01-30T13:12:44.676Z,98501.89
2019-01-30T13:15:14.811Z,98491.29
2019-01-30T13:17:42.781Z,98497.38
2019-01-30T13:20:14.371Z,98498.11
2019-01-30T13:22:42.148Z,98498.41
2019-01-30T13:25:10.223Z,98494.13
2019-01-30T13:27:38.037Z,98495.36
2019-01-30T13:30:11.983Z,98496.93
2019-01-30T13:32:39.804Z,98506.46
2019-01-30T13:35:08.034Z,98509.34
2019-01-30T13:37:35.906Z,98504.22
2019-01-30T13:40:08.110Z,98497.94
2019-01-30T13:42:36.112Z,98492.39
2019-01-30T13:45:05.546Z,98495.50
2019-01-30T13:47:33.612Z,98495.59
2019-01-30T13:50:01.529Z,98499.98
2019-01-30T13:52:29.296Z,98498.19
2019-01-30T13:54:57.088Z,98499.94
2019-01-30T13:57:24.868Z,98497.34
2019-01-30T13:59:52.678Z,98498.47
2019-01-30T14:02:20.510Z,98502.95
2019-01-30T14:04:48.336Z,98499.87
2019-01-30T14:07:16.154Z,98505.06
2019-01-30T14:09:43.978Z,98505.50
2019-01-30T14:12:11.719Z,98493.53
2019-01-30T14:14:39.506Z,98490.70
2019-01-30T14:17:07.262Z,98491.13
2019-01-30T14:19:35.092Z,98492.78
2019-01-30T14:22:02.864Z,98490.72
2019-01-30T14:24:30.693Z,98485.17
2019-01-30T14:26:58.629Z,98488.34
2019-01-30T14:29:26.456Z,98484.42
2019-01-30T14:31:54.224Z,98486.50
2019-01-30T14:34:22.012Z,98477.53
2019-01-30T14:36:49.833Z,98489.53
2019-01-30T14:39:17.669Z,98488.86
2019-01-30T14:41:45.515Z,98489.97
2019-01-30T14:44:13.409Z,98484.72
2019-01-30T14:46:41.392Z,98477.28
2019-01-30T14:49:09.252Z,98484.95
2019-01-30T14:51:37.023Z,98478.84
2019-01-30T14:54:04.850Z,98478.98
2019-01-30T14:56:32.633Z,98475.49
2019-01-30T14:59:00.664Z,98482.70
2019-01-30T15:01:28.607Z,98480.48
2019-01-30T15:03:56.419Z,98480.12
2019-01-30T15:06:24.196Z,98478.43
2019-01-30T15:08:51.997Z,98468.47
2019-01-30T15:11:25.563Z,98477.45
2019-01-30T15:13:53.384Z,98477.75
2019-01-30T15:16:22.418Z,98481.89
2019-01-30T15:18:50.418Z,98482.12
2019-01-30T15:21:18.403Z,98480.95
2019-01-30T15:23:46.238Z,98494.84
2019-01-30T15:26:14.071Z,98486.42
2019-01-30T15:28:41.846Z,98488.36
2019-01-30T15:31:09.638Z,98484.30
2019-01-30T15:33:37.507Z,98486.08
2019-01-30T15:36:05.314Z,98478.97
2019-01-30T15:38:33.219Z,98482.44
2019-01-30T15:41:01.092Z,98481.14
2019-01-30T15:43:28.865Z,98474.23
2019-01-30T15:45:56.594Z,98488.22
2019-01-30T15:48:24.646Z,98483.38
2019-01-30T15:50:52.558Z,98483.87
2019-01-30T15:53:22.918Z,98488.98
2019-01-30T15:55:50.928Z,98494.38
2019-01-30T15:58:19.022Z,98490.02
2019-01-30T16:01:04.582Z,98498.61
2019-01-30T16:03:32.491Z,98492.74
2019-01-30T16:06:00.316Z,98500.80
2019-01-30T16:08:28.064Z,98497.53
2019-01-30T16:10:55.980Z,98508.23
2019-01-30T16:13:23.807Z,98507.91
2019-01-30T16:15:56.153Z,98504.39
2019-01-30T16:18:25.172Z,98502.34
2019-01-30T16:20:52.957Z,98508.31
2019-01-30T16:23:20.735Z,98500.97
2019-01-30T16:25:48.562Z,98505.02
2019-01-30T16:28:16.342Z,98513.00
2019-01-30T16:30:44.184Z,98513.72
2019-01-30T16:33:12.002Z,98514.99
2019-01-30T16:35:39.810Z,98520.48
2019-01-30T16:38:07.670Z,98515.41
2019-01-30T16:40:35.564Z,98517.60
2019-01-30T16:43:04.321Z,98521.98
2019-01-30T16:45:32.627Z,98521.20
2019-01-30T16:48:00.407Z,98528.97
2019-01-30T16:50:28.249Z,98529.30
2019-01-30T16:52:56.073Z,98527.67
2019-01-30T16:55:24.206Z,98527.24
2019-01-30T16:57:52.606Z,98531.88
2019-01-30T17:00:23.962Z,98534.72
2019-01-30T17:02:51.878Z,98525.13
2019-01-30T17:05:19.833Z,98534.98
2019-01-30T17:07:47.629Z,98537.03
2019-01-30T17:10:16.446Z,98535.05
2019-01-30T17:12:44.463Z,98531.78
2019-01-30T17:15:16.155Z,98535.16
2019-01-30T17:17:44.003Z,98535.13
2019-01-30T17:20:16.440Z,98534.55
2019-01-30T17:22:44.265Z,98533.39
2019-01-30T17:25:12.623Z,98530.80
2019-01-30T17:27:40.431Z,98538.53
2019-01-30T17:30:16.383Z,98533.00
2019-01-30T17:32:44.224Z,98539.49
2019-01-30T17:35:12.447Z,98526.60
2019-01-30T17:37:40.233Z,98527.54
2019-01-30T17:40:13.742Z,98534.83
2019-01-30T17:42:41.600Z,98526.20
2019-01-30T17:45:09.653Z,98530.91
2019-01-30T17:47:37.522Z,98532.39
2019-01-30T17:50:07.556Z,98536.63
2019-01-30T17:52:35.445Z,98535.02
2019-01-30T17:55:05.236Z,98536.84
2019-01-30T17:57:33.212Z,98534.66
2019-01-30T18:00:04.721Z,98535.55
2019-01-30T18:02:32.577Z,98536.98
2019-01-30T18:05:02.198Z,98538.53
2019-01-30T18:07:30.042Z,98534.72
2019-01-30T18:09:57.896Z,98531.59
2019-01-30T18:12:25.740Z,98535.88
2019-01-30T18:14:53.577Z,98539.50
2019-01-30T18:17:21.502Z,98529.97
2019-01-30T18:19:49.306Z,98539.50
2019-01-30T18:22:17.152Z,98531.73
2019-01-30T18:24:45.064Z,98544.39
2019-01-30T18:27:12.872Z,98532.45
2019-01-30T18:29:40.761Z,98537.30
2019-01-30T18:32:08.549Z,98537.78
2019-01-30T18:34:36.375Z,98534.33
2019-01-30T18:37:04.488Z,98530.80
2019-01-30T18:39:32.329Z,98541.30
2019-01-30T18:42:00.158Z,98542.34
2019-01-30T18:44:27.963Z,98534.64
2019-01-30T18:46:58.043Z,98540.72
2019-01-30T18:49:25.833Z,98537.27
2019-01-30T18:51:53.621Z,98541.19
2019-01-30T18:54:21.513Z,98544.95
2019-01-30T18:56:49.435Z,98538.78
2019-01-30T18:59:17.225Z,98551.08
2019-01-30T19:01:45.076Z,98546.66
2019-01-30T19:04:12.859Z,98544.60
2019-01-30T19:06:51.707Z,98549.75
2019-01-30T19:09:10.895Z,98548.92
2019-01-30T19:11:38.735Z,98549.70
2019-01-30T19:14:06.583Z,98552.33
2019-01-30T19:16:34.331Z,98548.29
2019-01-30T19:19:02.134Z,98541.70
2019-01-30T19:21:29.965Z,98547.46
2019-01-30T19:23:57.777Z,98545.34
2019-01-30T19:26:25.634Z,98542.36
2019-01-30T19:28:53.469Z,98552.63
2019-01-30T19:31:21.252Z,98549.02
2019-01-30T19:33:49.057Z,98538.98
2019-01-30T19:36:16.865Z,98543.75
2019-01-30T19:38:44.624Z,98550.02
2019-01-30T19:41:12.470Z,98541.20
2019-01-30T19:43:40.271Z,98540.70
2019-01-30T19:46:08.085Z,98542.31
2019-01-30T19:48:35.890Z,98542.59
2019-01-30T19:51:03.823Z,98554.68
2019-01-30T19:53:31.643Z,98560.22
2019-01-30T19:55:59.523Z,98557.88
2019-01-30T19:58:27.388Z,98555.45
2019-01-30T20:00:55.218Z,98553.13
2019-01-30T20:03:27.820Z,98554.34
2019-01-30T20:05:55.698Z,98560.34
2019-01-30T20:08:23.732Z,98560.34
2019-01-30T20:10:51.556Z,98558.13
2019-01-30T20:13:19.350Z,98561.24
2019-01-30T20:15:47.222Z,98572.87
2019-01-30T20:18:15.120Z,98567.83
2019-01-30T20:20:42.933Z,98569.11
2019-01-30T20:23:14.414Z,98569.77
2019-01-30T20:25:43.919Z,98573.11
2019-01-30T20:28:12.784Z,98574.92
2019-01-30T20:30:40.596Z,98577.58
2019-01-30T20:33:08.384Z,98582.09
2019-01-30T20:35:36.261Z,98582.98
2019-01-30T20:38:04.739Z,98592.78
2019-01-30T20:40:32.563Z,98582.48
2019-01-30T20:43:00.710Z,98587.75
2019-01-30T20:45:33.903Z,98586.85
2019-01-30T20:47:58.328Z,98586.20
2019-01-30T20:50:27.994Z,98590.41
2019-01-30T20:52:56.150Z,98586.33
2019-01-30T20:55:24.145Z,98589.25
2019-01-30T20:57:52.050Z,98602.67
2019-01-30T21:00:26.031Z,98597.17
2019-01-30T21:02:53.893Z,98593.84
2019-01-30T21:05:21.659Z,98593.06
2019-01-30T21:07:49.471Z,98596.88
2019-01-30T21:10:20.991Z,98592.48
2019-01-30T21:12:48.859Z,98592.66
2019-01-30T21:15:16.967Z,98598.57
2019-01-30T21:17:44.801Z,98604.17
2019-01-30T21:20:13.145Z,98598.20
2019-01-30T21:22:40.967Z,98598.75
2019-01-30T21:25:13.038Z,98602.41
2019-01-30T21:27:40.891Z,98599.68
2019-01-30T21:30:11.498Z,98596.09
2019-01-30T21:32:39.341Z,98598.57
2019-01-30T21:35:07.231Z,98611.55
2019-01-30T21:37:35.048Z,98607.16
2019-01-30T21:40:03.795Z,98606.73
2019-01-30T21:42:31.642Z,98605.33
2019-01-30T21:44:59.424Z,98614.39
2019-01-30T21:47:27.256Z,98611.41
2019-01-30T21:49:55.056Z,98606.91
2019-01-30T21:52:22.940Z,98607.30
2019-01-30T21:54:50.714Z,98617.47
2019-01-30T21:57:18.537Z,98608.98
2019-01-30T21:59:46.522Z,98613.77
2019-01-30T22:02:14.300Z,98612.92
2019-01-30T22:04:42.110Z,98606.82
2019-01-30T22:07:09.890Z,98604.16
2019-01-30T22:09:37.694Z,98611.20
2019-01-30T22:12:05.576Z,98612.61
2019-01-30T22:14:33.439Z,98604.84
2019-01-30T22:17:02.690Z,98620.38
2019-01-30T22:19:30.516Z,98613.04
2019-01-30T22:21:58.358Z,98622.42
2019-01-30T22:24:26.202Z,98615.70
2019-01-30T22:26:53.992Z,98621.92
2019-01-30T22:29:21.832Z,98619.80
2019-01-30T22:31:49.972Z,98627.03
2019-01-30T22:34:17.800Z,98629.56
2019-01-30T22:36:45.613Z,98630.00
2019-01-30T22:39:13.436Z,98629.48
2019-01-30T22:41:41.266Z,98635.73
2019-01-30T22:44:09.090Z,98637.66
2019-01-30T22:46:36.932Z,98638.09
2019-01-30T22:49:04.728Z,98645.79
2019-01-30T22:51:32.525Z,98646.08
2019-01-30T22:54:00.321Z,98646.69
2019-01-30T22:56:28.147Z,98651.11
2019-01-30T22:58:55.982Z,98645.50
2019-01-30T23:01:50.107Z,98649.60
2019-01-30T23:05:11.239Z,98649.78
2019-01-30T23:08:22.929Z,98642.38
2019-01-30T23:11:17.369Z,98649.20
2019-01-30T23:14:05.629Z,98650.03
2019-01-30T23:17:39.949Z,98654.27
2019-01-30T23:20:25.538Z,98648.30
2019-01-30T23:23:49.805Z,98644.42
2019-01-30T23:26:42.991Z,98638.05
2019-01-30T23:29:57.753Z,98648.81
2019-01-30T23:33:41.395Z,98648.20
2019-01-30T23:37:12.785Z,98646.58
2019-01-30T23:40:46.079Z,98653.52
2019-01-30T23:43:45.313Z,98648.99
2019-01-30T23:47:00.334Z,98642.08
2019-01-30T23:50:36.864Z,98643.27
2019-01-30T23:53:47.511Z,98646.66
2019-01-30T23:57:04.434Z,98650.06
